sensor_id;sensor_type;location;lat;lon;timestamp;pressure;altitude;pressure_sealevel;temperature;humidity
75006;BME280;63553;51.814;4.600;2022-11-14T00:02:14;101729.84;;;4.47;90.00
75006;BME280;63553;51.814;4.600;2022-11-14T00:04:44;101740.31;;;4.77;90.37
75006;BME280;63553;51.814;4.600;2022-11-14T00:07:09;101739.69;;;4.70;90.21
75006;BME280;63553;51.814;4.600;2022-11-14T00:09:35;101734.34;;;4.59;88.66
75006;BME280;63553;51.814;4.600;2022-11-14T00:12:03;101734.53;;;4.52;89.77
75006;BME280;63553;51.814;4.600;2022-11-14T00:14:28;101736.22;;;4.53;89.16
75006;BME280;63553;51.814;4.600;2022-11-14T00:16:53;101736.69;;;4.45;89.45
75006;BME280;63553;51.814;4.600;2022-11-14T00:19:19;101726.28;;;4.52;89.67
75006;BME280;63553;51.814;4.600;2022-11-14T00:21:44;101722.25;;;4.60;90.13
75006;BME280;63553;51.814;4.600;2022-11-14T00:24:09;101725.94;;;4.75;89.54
75006;BME280;63553;51.814;4.600;2022-11-14T00:26:35;101731.97;;;4.72;90.46
75006;BME280;63553;51.814;4.600;2022-11-14T00:29:00;101718.44;;;4.66;89.34
75006;BME280;63553;51.814;4.600;2022-11-14T00:31:25;101711.16;;;4.55;89.08
75006;BME280;63553;51.814;4.600;2022-11-14T00:33:51;101712.28;;;4.54;88.90
75006;BME280;63553;51.814;4.600;2022-11-14T00:36:16;101713.06;;;4.81;89.66
75006;BME280;63553;51.814;4.600;2022-11-14T00:38:41;101716.03;;;4.74;89.76
75006;BME280;63553;51.814;4.600;2022-11-14T00:41:06;101712.81;;;4.87;88.52
75006;BME280;63553;51.814;4.600;2022-11-14T00:43:32;101713.16;;;4.59;87.80
75006;BME280;63553;51.814;4.600;2022-11-14T00:45:57;101704.59;;;4.61;89.74
75006;BME280;63553;51.814;4.600;2022-11-14T00:48:22;101699.03;;;4.51;89.11
75006;BME280;63553;51.814;4.600;2022-11-14T00:50:48;101704.22;;;4.47;89.43
75006;BME280;63553;51.814;4.600;2022-11-14T00:53:15;101700.75;;;4.30;89.24
75006;BME280;63553;51.814;4.600;2022-11-14T00:55:41;101696.16;;;4.40;89.62
75006;BME280;63553;51.814;4.600;2022-11-14T00:58:07;101687.16;;;4.50;90.50
75006;BME280;63553;51.814;4.600;2022-11-14T01:00:33;101691.97;;;4.65;90.53
75006;BME280;63553;51.814;4.600;2022-11-14T01:02:58;101688.91;;;4.61;89.50
75006;BME280;63553;51.814;4.600;2022-11-14T01:05:24;101678.78;;;4.67;89.52
75006;BME280;63553;51.814;4.600;2022-11-14T01:07:50;101678.59;;;4.46;88.56
75006;BME280;63553;51.814;4.600;2022-11-14T01:10:16;101682.28;;;4.89;89.92
75006;BME280;63553;51.814;4.600;2022-11-14T01:12:41;101671.38;;;4.72;89.12
75006;BME280;63553;51.814;4.600;2022-11-14T01:15:07;101681.41;;;4.83;90.07
75006;BME280;63553;51.814;4.600;2022-11-14T01:17:32;101671.84;;;4.59;89.42
75006;BME280;63553;51.814;4.600;2022-11-14T01:19:58;101668.47;;;4.84;89.84
75006;BME280;63553;51.814;4.600;2022-11-14T01:22:23;101665.69;;;4.52;88.43
75006;BME280;63553;51.814;4.600;2022-11-14T01:24:48;101670.59;;;4.77;89.75
75006;BME280;63553;51.814;4.600;2022-11-14T01:27:14;101662.69;;;4.85;88.88
75006;BME280;63553;51.814;4.600;2022-11-14T01:29:39;101656.47;;;5.05;90.37
75006;BME280;63553;51.814;4.600;2022-11-14T01:32:04;101650.41;;;5.08;88.83
75006;BME280;63553;51.814;4.600;2022-11-14T01:34:30;101649.53;;;4.61;86.86
75006;BME280;63553;51.814;4.600;2022-11-14T01:36:55;101649.00;;;4.64;87.64
75006;BME280;63553;51.814;4.600;2022-11-14T01:39:21;101643.28;;;4.70;87.93
75006;BME280;63553;51.814;4.600;2022-11-14T01:41:46;101646.03;;;5.12;88.30
75006;BME280;63553;51.814;4.600;2022-11-14T01:44:14;101640.63;;;4.85;86.43
75006;BME280;63553;51.814;4.600;2022-11-14T01:46:42;101635.28;;;4.69;87.01
75006;BME280;63553;51.814;4.600;2022-11-14T01:49:14;101634.63;;;4.57;87.70
75006;BME280;63553;51.814;4.600;2022-11-14T01:51:45;101628.84;;;4.58;87.98
75006;BME280;63553;51.814;4.600;2022-11-14T01:54:32;101625.84;;;4.60;87.74
75006;BME280;63553;51.814;4.600;2022-11-14T01:57:01;101622.25;;;4.59;87.99
75006;BME280;63553;51.814;4.600;2022-11-14T01:59:30;101621.44;;;4.59;88.80
75006;BME280;63553;51.814;4.600;2022-11-14T02:01:58;101618.63;;;4.54;87.82
75006;BME280;63553;51.814;4.600;2022-11-14T02:04:29;101607.81;;;4.42;87.70
75006;BME280;63553;51.814;4.600;2022-11-14T02:07:00;101606.38;;;4.39;87.85
75006;BME280;63553;51.814;4.600;2022-11-14T02:09:30;101599.91;;;4.51;89.79
75006;BME280;63553;51.814;4.600;2022-11-14T02:11:58;101606.28;;;4.61;88.94
75006;BME280;63553;51.814;4.600;2022-11-14T02:14:26;101598.19;;;4.44;87.42
75006;BME280;63553;51.814;4.600;2022-11-14T02:16:52;101602.94;;;4.54;86.75
75006;BME280;63553;51.814;4.600;2022-11-14T02:19:18;101606.84;;;4.26;87.30
75006;BME280;63553;51.814;4.600;2022-11-14T02:21:43;101601.81;;;4.50;88.37
75006;BME280;63553;51.814;4.600;2022-11-14T02:24:10;101595.56;;;4.28;87.47
75006;BME280;63553;51.814;4.600;2022-11-14T02:26:36;101597.97;;;4.19;87.92
75006;BME280;63553;51.814;4.600;2022-11-14T02:29:02;101594.03;;;4.10;87.68
75006;BME280;63553;51.814;4.600;2022-11-14T02:31:28;101585.16;;;4.03;88.24
75006;BME280;63553;51.814;4.600;2022-11-14T02:33:53;101588.13;;;3.97;88.29
75006;BME280;63553;51.814;4.600;2022-11-14T02:36:18;101579.88;;;3.97;88.24
75006;BME280;63553;51.814;4.600;2022-11-14T02:38:43;101589.72;;;3.92;89.59
75006;BME280;63553;51.814;4.600;2022-11-14T02:41:09;101569.88;;;3.85;89.11
75006;BME280;63553;51.814;4.600;2022-11-14T02:43:34;101572.25;;;4.04;89.00
75006;BME280;63553;51.814;4.600;2022-11-14T02:45:59;101561.88;;;4.16;88.87
75006;BME280;63553;51.814;4.600;2022-11-14T02:48:25;101569.53;;;4.09;88.90
75006;BME280;63553;51.814;4.600;2022-11-14T02:50:50;101564.00;;;4.04;88.62
75006;BME280;63553;51.814;4.600;2022-11-14T02:53:15;101554.09;;;4.08;88.80
75006;BME280;63553;51.814;4.600;2022-11-14T02:55:41;101558.78;;;4.07;89.35
75006;BME280;63553;51.814;4.600;2022-11-14T02:58:06;101559.50;;;4.24;88.32
75006;BME280;63553;51.814;4.600;2022-11-14T03:00:32;101553.47;;;4.27;88.21
75006;BME280;63553;51.814;4.600;2022-11-14T03:02:57;101539.19;;;4.35;88.03
75006;BME280;63553;51.814;4.600;2022-11-14T03:05:23;101552.94;;;4.30;88.57
75006;BME280;63553;51.814;4.600;2022-11-14T03:07:52;101549.22;;;4.15;88.17
75006;BME280;63553;51.814;4.600;2022-11-14T03:10:18;101545.22;;;4.32;88.70
75006;BME280;63553;51.814;4.600;2022-11-14T03:12:44;101541.84;;;4.20;87.87
75006;BME280;63553;51.814;4.600;2022-11-14T03:15:09;101524.78;;;4.18;88.48
75006;BME280;63553;51.814;4.600;2022-11-14T03:17:35;101531.88;;;4.14;87.58
75006;BME280;63553;51.814;4.600;2022-11-14T03:20:00;101530.28;;;4.18;88.94
75006;BME280;63553;51.814;4.600;2022-11-14T03:22:26;101527.78;;;4.22;89.12
75006;BME280;63553;51.814;4.600;2022-11-14T03:24:52;101534.84;;;4.08;88.11
75006;BME280;63553;51.814;4.600;2022-11-14T03:27:17;101532.44;;;4.16;87.22
75006;BME280;63553;51.814;4.600;2022-11-14T03:29:43;101536.69;;;3.97;88.24
75006;BME280;63553;51.814;4.600;2022-11-14T03:32:08;101536.84;;;3.85;87.99
75006;BME280;63553;51.814;4.600;2022-11-14T03:34:33;101525.78;;;3.80;88.64
75006;BME280;63553;51.814;4.600;2022-11-14T03:36:58;101527.09;;;3.73;87.59
75006;BME280;63553;51.814;4.600;2022-11-14T03:39:25;101535.56;;;3.66;88.14
75006;BME280;63553;51.814;4.600;2022-11-14T03:41:51;101534.41;;;3.62;87.83
75006;BME280;63553;51.814;4.600;2022-11-14T03:44:16;101537.41;;;4.19;89.17
75006;BME280;63553;51.814;4.600;2022-11-14T03:46:41;101538.22;;;4.15;87.83
75006;BME280;63553;51.814;4.600;2022-11-14T03:49:07;101533.59;;;3.88;87.87
75006;BME280;63553;51.814;4.600;2022-11-14T03:51:33;101532.09;;;3.76;89.70
75006;BME280;63553;51.814;4.600;2022-11-14T03:53:58;101535.22;;;3.89;89.58
75006;BME280;63553;51.814;4.600;2022-11-14T03:56:23;101524.16;;;3.79;88.34
75006;BME280;63553;51.814;4.600;2022-11-14T03:58:49;101523.19;;;3.96;89.08
75006;BME280;63553;51.814;4.600;2022-11-14T04:01:14;101518.31;;;4.03;89.16
75006;BME280;63553;51.814;4.600;2022-11-14T04:03:39;101516.72;;;4.12;88.60
75006;BME280;63553;51.814;4.600;2022-11-14T04:06:05;101520.84;;;4.09;88.38
75006;BME280;63553;51.814;4.600;2022-11-14T04:08:31;101523.25;;;4.01;88.12
75006;BME280;63553;51.814;4.600;2022-11-14T04:10:56;101523.00;;;3.75;87.56
75006;BME280;63553;51.814;4.600;2022-11-14T04:13:21;101519.13;;;4.40;87.57
75006;BME280;63553;51.814;4.600;2022-11-14T04:15:53;101518.31;;;4.03;88.10
75006;BME280;63553;51.814;4.600;2022-11-14T04:18:18;101506.88;;;3.89;88.28
75006;BME280;63553;51.814;4.600;2022-11-14T04:20:44;101505.69;;;4.07;87.86
75006;BME280;63553;51.814;4.600;2022-11-14T04:23:09;101496.34;;;4.49;86.41
75006;BME280;63553;51.814;4.600;2022-11-14T04:25:34;101496.53;;;4.38;86.36
75006;BME280;63553;51.814;4.600;2022-11-14T04:27:59;101503.09;;;4.27;86.88
75006;BME280;63553;51.814;4.600;2022-11-14T04:30:25;101499.84;;;4.40;86.19
75006;BME280;63553;51.814;4.600;2022-11-14T04:32:50;101503.09;;;4.27;86.38
75006;BME280;63553;51.814;4.600;2022-11-14T04:35:15;101502.16;;;4.16;86.47
75006;BME280;63553;51.814;4.600;2022-11-14T04:37:41;101501.72;;;4.29;87.18
75006;BME280;63553;51.814;4.600;2022-11-14T04:40:07;101494.41;;;4.45;86.46
75006;BME280;63553;51.814;4.600;2022-11-14T04:42:32;101489.44;;;4.47;85.19
75006;BME280;63553;51.814;4.600;2022-11-14T04:44:57;101485.00;;;4.41;85.74
75006;BME280;63553;51.814;4.600;2022-11-14T04:47:23;101484.81;;;4.58;85.54
75006;BME280;63553;51.814;4.600;2022-11-14T04:49:48;101481.69;;;4.39;85.90
75006;BME280;63553;51.814;4.600;2022-11-14T04:52:13;101468.41;;;4.31;86.31
75006;BME280;63553;51.814;4.600;2022-11-14T04:54:38;101474.53;;;4.38;85.99
75006;BME280;63553;51.814;4.600;2022-11-14T04:57:04;101481.44;;;4.45;85.84
75006;BME280;63553;51.814;4.600;2022-11-14T04:59:29;101470.59;;;4.24;86.52
75006;BME280;63553;51.814;4.600;2022-11-14T05:01:54;101471.63;;;4.13;86.03
75006;BME280;63553;51.814;4.600;2022-11-14T05:04:19;101469.97;;;4.17;86.62
75006;BME280;63553;51.814;4.600;2022-11-14T05:06:45;101463.16;;;4.24;86.03
75006;BME280;63553;51.814;4.600;2022-11-14T05:09:10;101462.34;;;4.29;86.23
75006;BME280;63553;51.814;4.600;2022-11-14T05:11:35;101450.91;;;4.05;86.82
75006;BME280;63553;51.814;4.600;2022-11-14T05:14:01;101458.28;;;4.00;86.96
75006;BME280;63553;51.814;4.600;2022-11-14T05:16:26;101444.31;;;4.06;86.29
75006;BME280;63553;51.814;4.600;2022-11-14T05:18:52;101453.75;;;4.15;85.69
75006;BME280;63553;51.814;4.600;2022-11-14T05:21:19;101444.63;;;4.10;86.14
75006;BME280;63553;51.814;4.600;2022-11-14T05:23:44;101449.28;;;4.09;85.91
75006;BME280;63553;51.814;4.600;2022-11-14T05:26:13;101444.88;;;4.08;86.13
75006;BME280;63553;51.814;4.600;2022-11-14T05:28:38;101435.75;;;4.03;86.55
75006;BME280;63553;51.814;4.600;2022-11-14T05:31:06;101430.34;;;4.13;86.17
75006;BME280;63553;51.814;4.600;2022-11-14T05:33:33;101440.75;;;4.11;86.12
75006;BME280;63553;51.814;4.600;2022-11-14T05:38:28;101434.09;;;4.02;86.27
75006;BME280;63553;51.814;4.600;2022-11-14T05:40:53;101431.56;;;3.95;86.20
75006;BME280;63553;51.814;4.600;2022-11-14T05:43:19;101432.78;;;4.09;85.90
75006;BME280;63553;51.814;4.600;2022-11-14T05:45:44;101434.31;;;3.95;86.01
75006;BME280;63553;51.814;4.600;2022-11-14T05:48:09;101427.41;;;3.92;86.52
75006;BME280;63553;51.814;4.600;2022-11-14T05:50:35;101437.66;;;3.97;85.69
75006;BME280;63553;51.814;4.600;2022-11-14T05:53:00;101431.03;;;3.98;85.76
75006;BME280;63553;51.814;4.600;2022-11-14T05:55:25;101436.72;;;3.86;86.38
75006;BME280;63553;51.814;4.600;2022-11-14T05:57:50;101444.78;;;3.98;85.50
75006;BME280;63553;51.814;4.600;2022-11-14T06:00:16;101449.44;;;3.92;85.82
75006;BME280;63553;51.814;4.600;2022-11-14T06:02:41;101449.38;;;3.82;86.12
75006;BME280;63553;51.814;4.600;2022-11-14T06:05:07;101447.47;;;3.88;85.95
75006;BME280;63553;51.814;4.600;2022-11-14T06:07:32;101450.78;;;4.27;84.64
75006;BME280;63553;51.814;4.600;2022-11-14T06:09:58;101438.47;;;3.98;85.27
75006;BME280;63553;51.814;4.600;2022-11-14T06:12:23;101441.78;;;4.00;85.55
75006;BME280;63553;51.814;4.600;2022-11-14T06:14:48;101438.94;;;3.89;85.99
75006;BME280;63553;51.814;4.600;2022-11-14T06:17:13;101444.22;;;3.96;85.57
75006;BME280;63553;51.814;4.600;2022-11-14T06:19:39;101452.03;;;3.72;85.89
75006;BME280;63553;51.814;4.600;2022-11-14T06:22:04;101442.56;;;3.58;86.12
75006;BME280;63553;51.814;4.600;2022-11-14T06:24:29;101447.25;;;3.63;87.06
75006;BME280;63553;51.814;4.600;2022-11-14T06:26:55;101440.06;;;3.57;86.99
75006;BME280;63553;51.814;4.600;2022-11-14T06:29:20;101444.59;;;3.41;87.32
75006;BME280;63553;51.814;4.600;2022-11-14T06:31:45;101452.56;;;3.43;87.19
75006;BME280;63553;51.814;4.600;2022-11-14T06:34:11;101449.25;;;3.41;87.58
75006;BME280;63553;51.814;4.600;2022-11-14T06:36:37;101447.19;;;3.53;87.31
75006;BME280;63553;51.814;4.600;2022-11-14T06:39:02;101445.78;;;3.50;86.87
75006;BME280;63553;51.814;4.600;2022-11-14T06:41:28;101442.41;;;3.43;87.20
75006;BME280;63553;51.814;4.600;2022-11-14T06:43:53;101435.88;;;3.49;87.77
75006;BME280;63553;51.814;4.600;2022-11-14T06:46:20;101442.19;;;3.50;87.23
75006;BME280;63553;51.814;4.600;2022-11-14T06:48:47;101450.38;;;3.45;87.50
75006;BME280;63553;51.814;4.600;2022-11-14T06:51:14;101455.59;;;3.41;87.36
75006;BME280;63553;51.814;4.600;2022-11-14T06:53:40;101452.38;;;3.49;87.49
75006;BME280;63553;51.814;4.600;2022-11-14T06:56:14;101455.47;;;3.58;87.02
75006;BME280;63553;51.814;4.600;2022-11-14T06:58:42;101453.88;;;3.62;87.35
75006;BME280;63553;51.814;4.600;2022-11-14T07:01:22;101455.47;;;3.58;87.18
75006;BME280;63553;51.814;4.600;2022-11-14T07:03:50;101444.59;;;3.41;87.61
75006;BME280;63553;51.814;4.600;2022-11-14T07:06:18;101451.28;;;3.50;87.93
75006;BME280;63553;51.814;4.600;2022-11-14T07:08:44;101453.06;;;3.66;87.15
75006;BME280;63553;51.814;4.600;2022-11-14T07:11:12;101447.88;;;3.70;87.25
75006;BME280;63553;51.814;4.600;2022-11-14T07:13:47;101445.31;;;3.58;87.08
75006;BME280;63553;51.814;4.600;2022-11-14T07:16:12;101445.50;;;3.52;87.28
75006;BME280;63553;51.814;4.600;2022-11-14T07:18:38;101438.41;;;3.56;87.56
75006;BME280;63553;51.814;4.600;2022-11-14T07:21:04;101443.16;;;3.38;87.63
75006;BME280;63553;51.814;4.600;2022-11-14T07:23:31;101437.25;;;3.52;87.92
75006;BME280;63553;51.814;4.600;2022-11-14T07:26:01;101432.63;;;3.57;87.99
75006;BME280;63553;51.814;4.600;2022-11-14T07:28:28;101424.50;;;3.67;87.93
75006;BME280;63553;51.814;4.600;2022-11-14T07:30:54;101423.50;;;3.52;87.61
75006;BME280;63553;51.814;4.600;2022-11-14T07:33:19;101419.75;;;3.95;87.36
75006;BME280;63553;51.814;4.600;2022-11-14T07:35:45;101425.06;;;4.06;85.98
75006;BME280;63553;51.814;4.600;2022-11-14T07:38:10;101422.09;;;4.18;86.00
75006;BME280;63553;51.814;4.600;2022-11-14T07:40:35;101420.34;;;4.48;84.29
75006;BME280;63553;51.814;4.600;2022-11-14T07:43:01;101418.13;;;4.45;84.29
75006;BME280;63553;51.814;4.600;2022-11-14T07:45:27;101410.75;;;4.56;84.31
75006;BME280;63553;51.814;4.600;2022-11-14T07:47:55;101410.81;;;4.71;83.31
75006;BME280;63553;51.814;4.600;2022-11-14T07:50:20;101409.50;;;4.99;82.52
75006;BME280;63553;51.814;4.600;2022-11-14T07:52:53;101413.38;;;4.98;82.11
75006;BME280;63553;51.814;4.600;2022-11-14T07:55:19;101409.84;;;5.13;82.70
75006;BME280;63553;51.814;4.600;2022-11-14T07:57:45;101412.31;;;5.04;82.21
75006;BME280;63553;51.814;4.600;2022-11-14T08:00:11;101416.97;;;4.98;83.03
75006;BME280;63553;51.814;4.600;2022-11-14T08:02:37;101410.38;;;5.04;82.36
75006;BME280;63553;51.814;4.600;2022-11-14T08:05:02;101412.59;;;5.13;82.12
75006;BME280;63553;51.814;4.600;2022-11-14T08:07:27;101411.00;;;5.42;80.93
75006;BME280;63553;51.814;4.600;2022-11-14T08:09:53;101403.81;;;5.41;79.95
75006;BME280;63553;51.814;4.600;2022-11-14T08:12:18;101409.63;;;5.65;78.77
75006;BME280;63553;51.814;4.600;2022-11-14T08:14:44;101397.50;;;5.86;78.40
75006;BME280;63553;51.814;4.600;2022-11-14T08:17:09;101414.88;;;6.06;78.03
75006;BME280;63553;51.814;4.600;2022-11-14T08:19:34;101398.50;;;6.45;75.83
75006;BME280;63553;51.814;4.600;2022-11-14T08:21:59;101414.41;;;6.68;74.78
75006;BME280;63553;51.814;4.600;2022-11-14T08:24:25;101417.00;;;6.40;75.33
75006;BME280;63553;51.814;4.600;2022-11-14T08:26:50;101415.91;;;6.46;75.14
75006;BME280;63553;51.814;4.600;2022-11-14T08:29:15;101410.03;;;6.62;73.87
75006;BME280;63553;51.814;4.600;2022-11-14T08:31:41;101405.38;;;6.53;75.07
75006;BME280;63553;51.814;4.600;2022-11-14T08:34:06;101400.06;;;6.66;74.43
75006;BME280;63553;51.814;4.600;2022-11-14T08:36:32;101396.50;;;6.61;74.17
75006;BME280;63553;51.814;4.600;2022-11-14T08:38:57;101389.31;;;6.65;74.43
75006;BME280;63553;51.814;4.600;2022-11-14T08:41:22;101387.97;;;6.52;75.53
75006;BME280;63553;51.814;4.600;2022-11-14T08:43:48;101390.38;;;6.69;75.17
75006;BME280;63553;51.814;4.600;2022-11-14T08:46:13;101372.06;;;6.83;74.09
75006;BME280;63553;51.814;4.600;2022-11-14T08:48:38;101371.28;;;6.83;73.72
75006;BME280;63553;51.814;4.600;2022-11-14T08:51:05;101376.00;;;6.72;74.70
75006;BME280;63553;51.814;4.600;2022-11-14T08:53:31;101371.97;;;7.03;74.50
75006;BME280;63553;51.814;4.600;2022-11-14T08:55:56;101380.31;;;6.93;74.24
75006;BME280;63553;51.814;4.600;2022-11-14T08:58:22;101368.66;;;7.06;73.10
75006;BME280;63553;51.814;4.600;2022-11-14T09:00:47;101366.56;;;7.61;70.97
75006;BME280;63553;51.814;4.600;2022-11-14T09:03:13;101351.38;;;7.87;70.03
75006;BME280;63553;51.814;4.600;2022-11-14T09:05:40;101353.28;;;7.92;70.31
75006;BME280;63553;51.814;4.600;2022-11-14T09:08:05;101347.34;;;8.27;68.78
75006;BME280;63553;51.814;4.600;2022-11-14T09:10:32;101351.97;;;8.60;68.03
75006;BME280;63553;51.814;4.600;2022-11-14T09:12:58;101346.53;;;8.74;67.12
75006;BME280;63553;51.814;4.600;2022-11-14T09:15:26;101352.22;;;8.82;66.71
75006;BME280;63553;51.814;4.600;2022-11-14T09:17:52;101354.19;;;8.58;67.13
75006;BME280;63553;51.814;4.600;2022-11-14T09:20:18;101345.84;;;8.63;67.46
75006;BME280;63553;51.814;4.600;2022-11-14T09:22:44;101347.03;;;8.33;69.42
75006;BME280;63553;51.814;4.600;2022-11-14T09:25:09;101345.09;;;8.34;69.31
75006;BME280;63553;51.814;4.600;2022-11-14T09:27:35;101351.19;;;8.07;68.95
75006;BME280;63553;51.814;4.600;2022-11-14T09:30:00;101347.63;;;8.02;69.62
75006;BME280;63553;51.814;4.600;2022-11-14T09:32:28;101349.94;;;8.18;69.67
75006;BME280;63553;51.814;4.600;2022-11-14T09:34:53;101347.03;;;8.57;68.99
75006;BME280;63553;51.814;4.600;2022-11-14T09:37:18;101341.25;;;8.30;69.90
75006;BME280;63553;51.814;4.600;2022-11-14T09:39:44;101337.19;;;8.22;69.75
75006;BME280;63553;51.814;4.600;2022-11-14T09:44:54;101341.47;;;8.10;71.01
75006;BME280;63553;51.814;4.600;2022-11-14T09:47:32;101332.38;;;8.04;70.56
75006;BME280;63553;51.814;4.600;2022-11-14T09:50:27;101349.09;;;7.94;71.15
75006;BME280;63553;51.814;4.600;2022-11-14T09:53:05;101344.94;;;8.20;70.48
75006;BME280;63553;51.814;4.600;2022-11-14T09:55:33;101337.88;;;8.09;70.93
75006;BME280;63553;51.814;4.600;2022-11-14T09:58:02;101334.72;;;7.92;71.41
75006;BME280;63553;51.814;4.600;2022-11-14T10:00:38;101333.50;;;8.03;71.14
75006;BME280;63553;51.814;4.600;2022-11-14T10:06:06;101317.56;;;8.43;69.62
75006;BME280;63553;51.814;4.600;2022-11-14T10:11:23;101323.09;;;8.43;70.00
75006;BME280;63553;51.814;4.600;2022-11-14T10:14:35;101315.44;;;8.96;68.98
75006;BME280;63553;51.814;4.600;2022-11-14T10:23:06;101316.16;;;9.71;66.54
75006;BME280;63553;51.814;4.600;2022-11-14T10:26:02;101325.97;;;9.49;67.38
75006;BME280;63553;51.814;4.600;2022-11-14T10:34:03;101308.25;;;9.45;67.34
75006;BME280;63553;51.814;4.600;2022-11-14T10:36:46;101310.88;;;9.56;68.08
75006;BME280;63553;51.814;4.600;2022-11-14T10:39:31;101310.00;;;9.74;66.60
75006;BME280;63553;51.814;4.600;2022-11-14T10:42:02;101310.00;;;9.74;67.73
75006;BME280;63553;51.814;4.600;2022-11-14T10:44:39;101309.16;;;9.73;66.59
75006;BME280;63553;51.814;4.600;2022-11-14T10:47:11;101295.28;;;9.87;66.47
75006;BME280;63553;51.814;4.600;2022-11-14T10:49:39;101290.50;;;10.06;66.95
75006;BME280;63553;51.814;4.600;2022-11-14T10:52:17;101293.47;;;9.82;66.97
75006;BME280;63553;51.814;4.600;2022-11-14T10:54:49;101280.56;;;9.73;67.27
75006;BME280;63553;51.814;4.600;2022-11-14T10:57:19;101282.41;;;9.77;67.43
75006;BME280;63553;51.814;4.600;2022-11-14T10:59:46;101278.50;;;9.65;67.95
75006;BME280;63553;51.814;4.600;2022-11-14T11:02:11;101273.34;;;9.58;69.06
75006;BME280;63553;51.814;4.600;2022-11-14T11:04:39;101272.13;;;9.64;68.68
75006;BME280;63553;51.814;4.600;2022-11-14T11:09:38;101271.03;;;9.79;68.88
75006;BME280;63553;51.814;4.600;2022-11-14T11:12:40;101262.25;;;9.58;69.58
75006;BME280;63553;51.814;4.600;2022-11-14T11:15:20;101262.19;;;9.44;70.31
75006;BME280;63553;51.814;4.600;2022-11-14T11:18:28;101263.69;;;9.69;69.58
75006;BME280;63553;51.814;4.600;2022-11-14T11:21:03;101264.81;;;9.68;69.13
75006;BME280;63553;51.814;4.600;2022-11-14T11:23:29;101252.16;;;9.62;70.14
75006;BME280;63553;51.814;4.600;2022-11-14T11:26:02;101248.03;;;9.60;69.29
75006;BME280;63553;51.814;4.600;2022-11-14T11:28:34;101256.81;;;9.80;69.73
75006;BME280;63553;51.814;4.600;2022-11-14T11:31:07;101263.81;;;9.78;68.68
75006;BME280;63553;51.814;4.600;2022-11-14T11:33:35;101265.97;;;9.67;69.48
75006;BME280;63553;51.814;4.600;2022-11-14T11:36:15;101264.84;;;9.82;68.63
75006;BME280;63553;51.814;4.600;2022-11-14T11:38:42;101277.19;;;9.76;69.47
75006;BME280;63553;51.814;4.600;2022-11-14T11:44:06;101263.38;;;9.57;69.91
75006;BME280;63553;51.814;4.600;2022-11-14T11:49:16;101264.09;;;9.63;71.11
75006;BME280;63553;51.814;4.600;2022-11-14T11:51:44;101258.03;;;9.74;69.06
75006;BME280;63553;51.814;4.600;2022-11-14T11:54:21;101262.91;;;9.82;69.22
75006;BME280;63553;51.814;4.600;2022-11-14T11:56:53;101262.13;;;9.49;70.60
75006;BME280;63553;51.814;4.600;2022-11-14T11:59:33;101260.19;;;9.50;71.19
75006;BME280;63553;51.814;4.600;2022-11-14T12:04:43;101249.88;;;9.50;70.25
75006;BME280;63553;51.814;4.600;2022-11-14T12:07:18;101248.31;;;9.90;70.31
75006;BME280;63553;51.814;4.600;2022-11-14T12:09:44;101238.41;;;9.98;69.98
75006;BME280;63553;51.814;4.600;2022-11-14T12:12:15;101234.69;;;9.62;70.33
75006;BME280;63553;51.814;4.600;2022-11-14T12:31:42;101198.28;;;9.63;71.68
75006;BME280;63553;51.814;4.600;2022-11-14T12:34:21;101211.38;;;9.76;71.23
75006;BME280;63553;51.814;4.600;2022-11-14T12:36:48;101213.94;;;9.73;71.43
75006;BME280;63553;51.814;4.600;2022-11-14T12:39:23;101216.69;;;9.86;71.09
75006;BME280;63553;51.814;4.600;2022-11-14T12:41:49;101206.31;;;9.78;71.64
75006;BME280;63553;51.814;4.600;2022-11-14T12:47:11;101203.84;;;9.90;71.44
75006;BME280;63553;51.814;4.600;2022-11-14T12:58:08;101189.16;;;10.03;70.39
75006;BME280;63553;51.814;4.600;2022-11-14T13:00:40;101177.72;;;10.19;69.99
75006;BME280;63553;51.814;4.600;2022-11-14T13:06:44;101168.47;;;10.23;69.79
75006;BME280;63553;51.814;4.600;2022-11-14T13:12:30;101168.97;;;10.25;69.99
75006;BME280;63553;51.814;4.600;2022-11-14T13:15:36;101174.63;;;10.20;70.25
75006;BME280;63553;51.814;4.600;2022-11-14T13:18:29;101174.56;;;10.47;69.81
75006;BME280;63553;51.814;4.600;2022-11-14T13:21:24;101166.59;;;10.32;70.36
75006;BME280;63553;51.814;4.600;2022-11-14T13:24:09;101168.25;;;10.33;69.86
75006;BME280;63553;51.814;4.600;2022-11-14T13:26:53;101168.88;;;10.30;70.16
75006;BME280;63553;51.814;4.600;2022-11-14T13:32:03;101160.31;;;10.63;70.19
75006;BME280;63553;51.814;4.600;2022-11-14T13:40:03;101167.63;;;10.58;68.47
75006;BME280;63553;51.814;4.600;2022-11-14T13:42:41;101170.81;;;10.66;68.18
75006;BME280;63553;51.814;4.600;2022-11-14T13:50:50;101147.81;;;10.74;67.40
75006;BME280;63553;51.814;4.600;2022-11-14T13:53:25;101153.47;;;10.46;68.65
75006;BME280;63553;51.814;4.600;2022-11-14T13:55:59;101142.75;;;10.53;68.33
75006;BME280;63553;51.814;4.600;2022-11-14T14:04:07;101139.16;;;10.39;67.94
75006;BME280;63553;51.814;4.600;2022-11-14T14:14:40;101113.66;;;10.82;67.73
75006;BME280;63553;51.814;4.600;2022-11-14T14:17:15;101109.44;;;11.46;67.40
75006;BME280;63553;51.814;4.600;2022-11-14T14:19:59;101081.44;;;12.33;69.84
75006;BME280;63553;51.814;4.600;2022-11-14T14:30:13;101098.81;;;10.42;69.62
75006;BME280;63553;51.814;4.600;2022-11-14T14:32:40;101089.06;;;11.76;68.91
75006;BME280;63553;51.814;4.600;2022-11-14T14:35:31;101089.00;;;11.20;67.05
75006;BME280;63553;51.814;4.600;2022-11-14T14:37:57;101099.63;;;10.07;68.80
75006;BME280;63553;51.814;4.600;2022-11-14T14:40:33;101108.63;;;9.76;69.68
75006;BME280;63553;51.814;4.600;2022-11-14T14:43:01;101115.94;;;9.72;69.95
75006;BME280;63553;51.814;4.600;2022-11-14T14:45:29;101114.28;;;9.58;70.58
75006;BME280;63553;51.814;4.600;2022-11-14T14:48:11;101103.13;;;9.98;69.18
75006;BME280;63553;51.814;4.600;2022-11-14T14:50:47;101083.94;;;9.75;69.91